Time;durP1;ratioP1;P1;durP2;ratioP2;P2;SDS_P1;SDS_P2;PMS_P1;PMS_P2;Temp;Humidity;BMP_temperature;BMP_pressure;BME280_temperature;BME280_humidity;BME280_pressure;Samples;Min_cycle;Max_cycle;Signal;HPM_P1;HPM_P2
2022/05/05 00:01:53;;;;;;;5.00;4.80;;;10.80;99.90;;;;;;5032250;28;20221;-66
2022/05/05 00:04:21;;;;;;;3.60;3.50;;;10.80;99.90;;;;;;5032154;28;20175;-65
2022/05/05 00:06:50;;;;;;;3.93;3.80;;;10.90;99.90;;;;;;5030611;28;20202;-65
2022/05/05 00:09:15;;;;;;;3.60;3.50;;;10.90;99.90;;;;;;5031866;28;20261;-66
2022/05/05 00:14:31;;;;;;;3.57;3.47;;;11.10;99.90;;;;;;5031724;28;20601;-66
2022/05/05 00:16:58;;;;;;;4.47;4.27;;;11.00;99.90;;;;;;5032010;28;20645;-66
2022/05/05 00:19:25;;;;;;;3.60;3.50;;;11.00;99.90;;;;;;5031925;28;20229;-66
2022/05/05 00:21:51;;;;;;;3.80;3.70;;;10.90;99.90;;;;;;5032029;28;20182;-65
2022/05/05 00:24:16;;;;;;;3.50;3.40;;;10.90;99.90;;;;;;5031796;28;20180;-66
2022/05/05 00:26:43;;;;;;;3.60;3.50;;;10.90;99.90;;;;;;5030045;28;20226;-65
2022/05/05 00:29:08;;;;;;;3.50;3.40;;;10.90;99.90;;;;;;5032100;28;20290;-65
2022/05/05 00:31:34;;;;;;;3.87;3.77;;;11.00;99.90;;;;;;5031544;28;20290;-66
2022/05/05 00:34:00;;;;;;;3.57;3.47;;;11.00;99.90;;;;;;5031001;28;20546;-66
2022/05/05 00:36:25;;;;;;;3.40;3.30;;;11.00;99.90;;;;;;5031342;28;20589;-65
2022/05/05 00:38:51;;;;;;;3.57;3.47;;;11.00;99.90;;;;;;5031761;28;20226;-66
2022/05/05 00:41:17;;;;;;;3.60;3.50;;;11.10;99.90;;;;;;5031500;28;20210;-66
2022/05/05 00:43:43;;;;;;;3.73;3.63;;;11.10;99.90;;;;;;5030556;28;20225;-66
2022/05/05 00:46:08;;;;;;;3.57;3.47;;;11.10;99.90;;;;;;5031233;28;20183;-66
2022/05/05 00:48:34;;;;;;;3.70;3.60;;;11.10;99.90;;;;;;5030710;28;20578;-65
2022/05/05 00:50:59;;;;;;;3.60;3.50;;;11.10;99.90;;;;;;5031304;28;20589;-65
2022/05/05 00:53:26;;;;;;;3.80;3.70;;;11.10;99.90;;;;;;5031417;28;20645;-66
2022/05/05 00:55:58;;;;;;;3.60;3.50;;;11.00;99.90;;;;;;5029882;28;20175;-66
2022/05/05 00:58:25;;;;;;;3.50;3.40;;;11.00;99.90;;;;;;5031065;28;20294;-66
2022/05/05 01:00:51;;;;;;;3.67;3.57;;;11.10;99.90;;;;;;5031717;28;20229;-65
2022/05/05 01:03:18;;;;;;;3.67;3.57;;;11.00;99.90;;;;;;5031126;28;20598;-66
2022/05/05 01:05:44;;;;;;;3.60;3.50;;;11.00;99.90;;;;;;5029952;28;20206;-65
2022/05/05 01:08:10;;;;;;;4.00;3.80;;;11.00;99.90;;;;;;5031008;28;20214;-65
2022/05/05 01:10:35;;;;;;;3.70;3.60;;;11.10;99.90;;;;;;5030220;28;20184;-66
2022/05/05 01:13:01;;;;;;;3.83;3.73;;;11.20;99.90;;;;;;5031221;28;20653;-66
2022/05/05 01:15:29;;;;;;;4.20;4.00;;;11.30;99.90;;;;;;5030992;28;20225;-66
2022/05/05 01:17:55;;;;;;;3.80;3.70;;;11.20;99.90;;;;;;5030980;28;20228;-65
2022/05/05 01:20:23;;;;;;;3.70;3.60;;;11.30;99.90;;;;;;5030882;28;20609;-66
2022/05/05 01:22:52;;;;;;;3.87;3.77;;;11.30;99.90;;;;;;5031289;28;20196;-67
2022/05/05 01:28:12;;;;;;;4.97;4.53;;;11.30;99.90;;;;;;5012394;28;20571;-66
2022/05/05 01:30:46;;;;;;;3.77;3.67;;;11.20;99.90;;;;;;5031158;28;20629;-66
2022/05/05 01:33:18;;;;;;;3.80;3.70;;;11.30;99.90;;;;;;5028803;28;20206;-66
2022/05/05 01:35:46;;;;;;;3.57;3.47;;;11.30;99.90;;;;;;5030938;28;20549;-66
2022/05/05 01:38:17;;;;;;;3.40;3.30;;;11.40;99.90;;;;;;5030760;28;20284;-65
2022/05/05 01:40:46;;;;;;;4.07;3.90;;;11.40;99.90;;;;;;5011684;28;20176;-65
2022/05/05 01:43:13;;;;;;;5.73;5.27;;;11.40;99.90;;;;;;5012060;28;20182;-66
2022/05/05 01:45:39;;;;;;;3.70;3.60;;;11.40;99.90;;;;;;5030885;28;20176;-66
2022/05/05 01:48:05;;;;;;;3.53;3.43;;;11.40;99.90;;;;;;5030910;28;20238;-66
2022/05/05 01:50:31;;;;;;;3.50;3.40;;;11.50;99.90;;;;;;5030823;28;20238;-65
2022/05/05 01:52:57;;;;;;;3.60;3.50;;;11.50;99.90;;;;;;5031276;28;20203;-66
2022/05/05 01:55:23;;;;;;;4.10;3.90;;;11.50;99.90;;;;;;5030536;28;20172;-66
2022/05/05 01:57:49;;;;;;;3.63;3.53;;;11.50;99.90;;;;;;5030884;28;20209;-65
2022/05/05 02:00:16;;;;;;;3.97;3.87;;;11.50;99.90;;;;;;5031299;28;20201;-66
2022/05/05 02:02:46;;;;;;;3.63;3.53;;;11.50;99.90;;;;;;5033566;28;20182;-66
2022/05/05 02:05:12;;;;;;;4.33;4.10;;;11.50;99.90;;;;;;5034184;28;20183;-65
2022/05/05 02:07:38;;;;;;;4.53;4.33;;;11.60;99.90;;;;;;5034305;28;20199;-65
2022/05/05 02:10:05;;;;;;;3.70;3.60;;;11.50;99.90;;;;;;5033290;28;20355;-65
2022/05/05 02:12:32;;;;;;;4.03;3.90;;;11.40;99.90;;;;;;5034135;28;20175;-66
2022/05/05 02:14:57;;;;;;;4.07;3.93;;;11.40;99.90;;;;;;5034184;28;20172;-66
2022/05/05 02:17:23;;;;;;;3.50;3.40;;;11.50;99.90;;;;;;5034110;28;20367;-66
2022/05/05 02:19:49;;;;;;;3.60;3.50;;;11.50;99.90;;;;;;5034466;28;20522;-65
2022/05/05 02:22:15;;;;;;;4.27;4.07;;;11.60;99.90;;;;;;5032724;28;20278;-66
2022/05/05 02:24:41;;;;;;;3.80;3.70;;;11.60;99.90;;;;;;5016273;28;20191;-66
2022/05/05 02:27:08;;;;;;;4.07;3.87;;;11.60;99.90;;;;;;5032365;28;20258;-67
2022/05/05 02:29:34;;;;;;;4.03;3.83;;;11.60;99.90;;;;;;5034059;28;20303;-66
2022/05/05 02:32:00;;;;;;;3.47;3.37;;;11.60;99.90;;;;;;5033787;28;20183;-65
2022/05/05 02:34:25;;;;;;;4.27;4.07;;;11.50;99.90;;;;;;5033000;28;20179;-67
2022/05/05 02:39:35;;;;;;;3.60;3.50;;;11.50;99.90;;;;;;5033883;28;20275;-65
2022/05/05 02:42:01;;;;;;;3.70;3.60;;;11.60;99.90;;;;;;5033902;28;20672;-66
2022/05/05 02:44:27;;;;;;;4.33;4.13;;;11.60;99.90;;;;;;5033423;28;20184;-66
2022/05/05 02:46:52;;;;;;;3.83;3.73;;;11.60;99.90;;;;;;5033638;28;20278;-65
2022/05/05 02:49:18;;;;;;;4.00;3.90;;;11.60;99.90;;;;;;5033746;28;20342;-65
2022/05/05 02:51:45;;;;;;;3.50;3.40;;;11.60;99.90;;;;;;5033748;28;20172;-66
2022/05/05 02:54:54;;;;;;;3.50;3.40;;;11.60;99.90;;;;;;5033373;28;20187;-65
2022/05/05 02:56:59;;;;;;;3.50;3.40;;;11.60;99.90;;;;;;5030508;28;20203;-65
2022/05/05 02:59:24;;;;;;;3.50;3.40;;;11.60;99.90;;;;;;5032044;28;20560;-65
2022/05/05 03:01:50;;;;;;;3.50;3.40;;;11.60;99.90;;;;;;5032280;28;20265;-66
2022/05/05 03:04:16;;;;;;;3.50;3.40;;;11.50;99.90;;;;;;5033292;28;20191;-66
2022/05/05 03:06:41;;;;;;;3.60;3.50;;;11.50;99.90;;;;;;5031823;28;20819;-65
2022/05/05 03:09:07;;;;;;;4.50;4.30;;;11.50;99.90;;;;;;5033078;28;20393;-64
2022/05/05 03:11:33;;;;;;;4.90;4.70;;;11.50;99.90;;;;;;5031304;28;20180;-65
2022/05/05 03:13:59;;;;;;;3.90;3.80;;;11.40;99.90;;;;;;5031674;28;20253;-64
2022/05/05 03:16:25;;;;;;;3.40;3.30;;;11.40;99.90;;;;;;5032970;28;20178;-65
2022/05/05 03:18:50;;;;;;;3.73;3.63;;;11.40;99.90;;;;;;5031824;28;20179;-65
2022/05/05 03:21:16;;;;;;;3.50;3.40;;;11.30;99.90;;;;;;5033459;28;20217;-65
2022/05/05 03:23:41;;;;;;;6.13;5.83;;;11.30;99.90;;;;;;5035214;28;20442;-65
2022/05/05 03:26:07;;;;;;;3.60;3.50;;;11.20;99.90;;;;;;5049596;28;20179;-65
2022/05/05 03:28:33;;;;;;;3.50;3.40;;;11.20;99.90;;;;;;5052991;28;20271;-66
2022/05/05 03:30:58;;;;;;;3.90;3.80;;;11.20;99.90;;;;;;5054375;28;20179;-66
2022/05/05 03:33:24;;;;;;;3.70;3.60;;;11.20;99.90;;;;;;5052801;28;20226;-65
2022/05/05 03:35:49;;;;;;;3.70;3.60;;;11.10;99.90;;;;;;5050628;28;20184;-65
2022/05/05 03:38:15;;;;;;;3.73;3.63;;;11.10;99.90;;;;;;5034367;28;20244;-66
2022/05/05 03:40:41;;;;;;;3.70;3.60;;;11.10;99.90;;;;;;5033342;28;20191;-66
2022/05/05 03:43:07;;;;;;;6.10;5.60;;;11.00;99.90;;;;;;5032299;28;20191;-66
2022/05/05 03:45:32;;;;;;;3.60;3.50;;;11.00;99.90;;;;;;5034542;28;20190;-65
2022/05/05 03:47:58;;;;;;;4.27;3.97;;;11.00;99.90;;;;;;5031754;28;20250;-65
2022/05/05 03:50:24;;;;;;;3.63;3.53;;;11.00;99.90;;;;;;5031837;28;20183;-65
2022/05/05 03:52:49;;;;;;;4.23;4.03;;;11.00;99.90;;;;;;5032796;28;20211;-65
2022/05/05 03:55:15;;;;;;;5.13;4.93;;;10.90;99.90;;;;;;5032496;28;20207;-66
2022/05/05 03:57:41;;;;;;;3.60;3.50;;;10.90;99.90;;;;;;5032268;28;20660;-66
2022/05/05 04:00:07;;;;;;;3.70;3.60;;;10.90;99.90;;;;;;5032747;28;20191;-66
2022/05/05 04:02:32;;;;;;;4.43;4.13;;;10.80;99.90;;;;;;5032350;28;20197;-66
2022/05/05 04:04:58;;;;;;;4.00;3.90;;;10.80;99.90;;;;;;5032165;28;20176;-66
2022/05/05 04:07:24;;;;;;;4.00;3.90;;;10.80;99.90;;;;;;5032187;28;20203;-66
2022/05/05 04:09:49;;;;;;;4.13;4.00;;;10.80;99.90;;;;;;5030967;28;20211;-66
2022/05/05 04:12:15;;;;;;;4.17;4.00;;;10.70;99.90;;;;;;5032170;28;20270;-66
2022/05/05 04:14:40;;;;;;;3.73;3.63;;;10.70;99.90;;;;;;5032509;28;20171;-65
2022/05/05 04:17:06;;;;;;;3.60;3.50;;;10.70;99.90;;;;;;5032123;28;20210;-65
2022/05/05 04:19:32;;;;;;;3.70;3.60;;;10.70;99.90;;;;;;5032938;28;20179;-66
2022/05/05 04:21:57;;;;;;;4.30;4.10;;;10.70;99.90;;;;;;5034341;28;20202;-66
2022/05/05 04:24:23;;;;;;;4.13;3.93;;;10.70;99.90;;;;;;5034739;28;20187;-66
2022/05/05 04:26:49;;;;;;;5.03;4.73;;;10.70;99.90;;;;;;5034320;28;20779;-66
2022/05/05 04:29:14;;;;;;;3.80;3.70;;;10.70;99.90;;;;;;5034273;28;20203;-66
2022/05/05 04:31:42;;;;;;;8.10;7.10;;;10.70;99.90;;;;;;5034553;28;20186;-66
2022/05/05 04:34:08;;;;;;;3.73;3.63;;;10.70;99.90;;;;;;5034904;28;20171;-66
2022/05/05 04:36:35;;;;;;;4.00;3.80;;;10.70;99.90;;;;;;5034399;28;20198;-66
2022/05/05 04:39:05;;;;;;;4.40;4.20;;;10.70;99.90;;;;;;5034131;28;20229;-66
2022/05/05 04:41:32;;;;;;;5.87;5.33;;;10.70;99.90;;;;;;5032597;28;20187;-66
2022/05/05 04:43:57;;;;;;;7.10;5.00;;;10.80;99.90;;;;;;5030436;28;20179;-65
2022/05/05 04:46:23;;;;;;;4.30;4.10;;;10.80;99.90;;;;;;5029754;28;20538;-66
2022/05/05 04:48:49;;;;;;;3.43;3.33;;;10.90;99.90;;;;;;5031388;28;20272;-66
2022/05/05 04:51:15;;;;;;;3.90;3.77;;;11.00;99.90;;;;;;5031631;28;20179;-66
2022/05/05 04:53:41;;;;;;;3.50;3.40;;;11.00;99.90;;;;;;5030175;28;20187;-66
2022/05/05 04:56:10;;;;;;;4.30;4.10;;;11.10;99.90;;;;;;5031234;28;20180;-66
2022/05/05 04:58:36;;;;;;;3.87;3.77;;;11.20;99.90;;;;;;5031336;28;20191;-66
2022/05/05 05:01:01;;;;;;;3.90;3.80;;;11.30;99.90;;;;;;5031233;28;20180;-66
2022/05/05 05:03:33;;;;;;;4.73;4.53;;;11.40;99.90;;;;;;5030889;28;20179;-65
2022/05/05 05:05:59;;;;;;;4.23;4.03;;;11.40;99.90;;;;;;5030588;28;20260;-65
2022/05/05 05:08:24;;;;;;;3.83;3.73;;;11.40;99.90;;;;;;5031190;28;20693;-65
2022/05/05 05:10:50;;;;;;;5.00;4.70;;;11.50;99.90;;;;;;5031264;28;20168;-66
2022/05/05 05:13:15;;;;;;;4.47;4.27;;;11.60;99.90;;;;;;5029829;28;20175;-65
2022/05/05 05:15:41;;;;;;;4.30;4.10;;;11.60;99.90;;;;;;5031216;28;20167;-66
2022/05/05 05:18:07;;;;;;;4.20;4.00;;;11.60;99.90;;;;;;5029765;28;20195;-66
2022/05/05 05:20:32;;;;;;;4.23;4.03;;;11.80;99.90;;;;;;5031497;28;20625;-66
2022/05/05 05:22:58;;;;;;;4.00;3.90;;;12.00;99.90;;;;;;5031022;28;20203;-66
2022/05/05 05:25:23;;;;;;;4.43;4.13;;;12.10;99.90;;;;;;5031018;28;20333;-66
2022/05/05 05:27:49;;;;;;;4.27;4.07;;;12.20;99.90;;;;;;5031224;28;20188;-66
2022/05/05 05:30:14;;;;;;;4.70;4.50;;;12.40;99.90;;;;;;5031108;28;20211;-65
2022/05/05 05:32:40;;;;;;;4.23;4.03;;;12.40;99.90;;;;;;5031067;28;20633;-66
2022/05/05 05:35:06;;;;;;;3.73;3.63;;;12.50;99.90;;;;;;5031277;28;20202;-66
2022/05/05 05:37:31;;;;;;;3.93;3.73;;;12.50;99.90;;;;;;5035006;28;20222;-66
2022/05/05 05:39:57;;;;;;;3.20;3.10;;;12.70;99.90;;;;;;5034023;28;20194;-66
2022/05/05 05:42:23;;;;;;;3.30;3.20;;;12.90;99.90;;;;;;5034649;28;20250;-66
2022/05/05 05:44:48;;;;;;;4.40;4.20;;;13.00;99.90;;;;;;5034895;28;20191;-65
2022/05/05 05:47:14;;;;;;;3.67;3.57;;;13.00;99.90;;;;;;5034356;28;20235;-65
2022/05/05 05:49:40;;;;;;;3.87;3.67;;;13.20;99.90;;;;;;5034970;28;20584;-65
2022/05/05 05:52:05;;;;;;;3.90;3.80;;;13.20;99.90;;;;;;5025320;28;20188;-66
2022/05/05 05:54:31;;;;;;;3.60;3.50;;;13.20;99.90;;;;;;5034152;28;20168;-65
2022/05/05 05:56:57;;;;;;;4.97;4.67;;;13.30;99.90;;;;;;5034214;28;20211;-65
2022/05/05 05:59:22;;;;;;;3.83;3.63;;;13.30;99.90;;;;;;5034547;28;20688;-65
2022/05/05 06:04:32;;;;;;;4.00;3.80;;;13.60;99.90;;;;;;5034221;28;20201;-66
2022/05/05 06:06:58;;;;;;;3.00;2.90;;;14.10;99.90;;;;;;5034153;28;20665;-65
2022/05/05 06:09:24;;;;;;;3.57;3.47;;;14.60;99.90;;;;;;5033068;28;20207;-66
2022/05/05 06:11:50;;;;;;;3.00;2.90;;;14.70;99.90;;;;;;5034103;28;20298;-66
2022/05/05 06:14:16;;;;;;;3.90;3.73;;;14.70;99.90;;;;;;5033808;28;20327;-66
2022/05/05 06:16:41;;;;;;;4.57;4.37;;;14.80;99.90;;;;;;5034186;28;20218;-66
2022/05/05 06:19:07;;;;;;;4.67;4.47;;;15.00;99.90;;;;;;5033792;28;20329;-67
2022/05/05 06:21:32;;;;;;;3.13;3.03;;;15.30;99.90;;;;;;5034271;28;20183;-66
2022/05/05 06:23:58;;;;;;;3.50;3.40;;;15.80;99.90;;;;;;5032522;28;20179;-66
2022/05/05 06:26:24;;;;;;;3.63;3.53;;;16.10;99.90;;;;;;5033660;28;20629;-66
2022/05/05 06:28:50;;;;;;;5.73;5.53;;;16.40;99.90;;;;;;5033686;28;20207;-66
2022/05/05 06:31:16;;;;;;;3.70;3.50;;;16.60;99.90;;;;;;5033492;28;20187;-66
2022/05/05 06:33:43;;;;;;;7.67;7.37;;;17.00;99.90;;;;;;5034329;28;20175;-66
2022/05/05 06:36:09;;;;;;;5.10;4.90;;;17.00;99.90;;;;;;5032817;28;20172;-66
2022/05/05 06:38:34;;;;;;;6.47;6.13;;;17.20;99.90;;;;;;5033205;28;20226;-66
2022/05/05 06:41:01;;;;;;;10.23;9.83;;;17.30;99.90;;;;;;5032293;28;20669;-66
2022/05/05 06:43:27;;;;;;;5.70;5.50;;;17.20;99.90;;;;;;5033981;28;20180;-66
2022/05/05 06:45:53;;;;;;;3.50;3.40;;;17.30;99.90;;;;;;5033265;28;20183;-66
2022/05/05 06:48:19;;;;;;;3.40;3.30;;;17.40;99.90;;;;;;5031217;28;20213;-67
2022/05/05 06:50:45;;;;;;;5.00;4.80;;;17.20;99.90;;;;;;5032814;28;20187;-66
2022/05/05 06:53:10;;;;;;;7.67;7.37;;;17.20;99.90;;;;;;5032967;28;20229;-66
2022/05/05 06:55:36;;;;;;;3.50;3.40;;;17.50;99.90;;;;;;5033366;28;20259;-66
2022/05/05 06:58:01;;;;;;;3.03;2.93;;;18.00;99.90;;;;;;5033236;28;20584;-66
2022/05/05 07:01:51;;;;;;;5.23;5.03;;;18.30;99.90;;;;;;5032224;28;20179;-66
2022/05/05 07:03:12;;;;;;;4.17;3.87;;;18.70;99.90;;;;;;5032970;28;20191;-66
2022/05/05 07:05:38;;;;;;;2.83;2.73;;;19.20;99.90;;;;;;5033118;28;20233;-66
2022/05/05 07:08:04;;;;;;;2.80;2.70;;;19.60;99.90;;;;;;5033128;28;20207;-66
2022/05/05 07:13:14;;;;;;;2.77;2.67;;;19.60;99.90;;;;;;5018628;28;20206;-66
2022/05/05 07:15:40;;;;;;;3.40;2.50;;;19.90;99.90;;;;;;5032912;28;20171;-66
2022/05/05 07:18:06;;;;;;;2.77;2.67;;;19.90;99.90;;;;;;5032803;28;20195;-66
2022/05/05 07:20:32;;;;;;;2.70;2.60;;;20.00;99.90;;;;;;5050074;28;20265;-66
2022/05/05 07:22:58;;;;;;;2.40;2.30;;;20.30;99.90;;;;;;5050564;28;20202;-66
2022/05/05 07:25:24;;;;;;;2.80;2.70;;;20.40;99.90;;;;;;5051858;28;20176;-66
2022/05/05 07:27:49;;;;;;;3.08;2.97;;;20.50;99.90;;;;;;5037930;28;20286;-66
2022/05/05 07:30:16;;;;;;;2.70;2.60;;;20.50;99.90;;;;;;5032915;28;20294;-66
2022/05/05 07:32:42;;;;;;;2.67;2.58;;;20.20;99.90;;;;;;5032778;28;20182;-66
2022/05/05 07:35:09;;;;;;;2.73;2.63;;;19.90;99.90;;;;;;5031970;28;20183;-66
2022/05/05 07:37:36;;;;;;;2.77;2.50;;;19.50;99.90;;;;;;5032627;28;20345;-66
2022/05/05 07:40:03;;;;;;;3.23;3.13;;;19.60;99.90;;;;;;5032722;28;20206;-66
2022/05/05 07:42:29;;;;;;;2.80;2.70;;;19.60;99.90;;;;;;5032433;28;20273;-66
2022/05/05 07:44:55;;;;;;;2.42;2.33;;;19.80;99.90;;;;;;5032393;28;20664;-66
2022/05/05 07:47:20;;;;;;;2.30;2.20;;;20.30;99.90;;;;;;5032443;28;20207;-66
2022/05/05 07:49:46;;;;;;;2.88;2.78;;;20.80;99.90;;;;;;5032752;28;20211;-66
2022/05/05 07:52:11;;;;;;;2.75;2.65;;;21.50;99.90;;;;;;5030860;28;20218;-66
2022/05/05 07:54:43;;;;;;;2.25;2.15;;;21.90;99.90;;;;;;5031299;28;20251;-66
2022/05/05 07:57:12;;;;;;;3.38;2.92;;;22.50;99.90;;;;;;5032092;28;20192;-66
2022/05/05 07:59:39;;;;;;;2.40;2.30;;;22.90;99.90;;;;;;5032302;28;20171;-65
2022/05/05 08:02:08;;;;;;;2.75;2.65;;;22.90;99.90;;;;;;5032466;28;20195;-66
2022/05/05 08:04:34;;;;;;;2.33;2.22;;;22.50;99.90;;;;;;5032190;28;20707;-66
2022/05/05 08:07:00;;;;;;;2.53;2.42;;;22.40;99.90;;;;;;5032073;28;20195;-67
2022/05/05 08:09:26;;;;;;;2.83;2.72;;;22.50;99.90;;;;;;5032168;28;20269;-66
2022/05/05 08:11:52;;;;;;;2.10;2.00;;;22.70;99.90;;;;;;5032316;28;20684;-67
2022/05/05 08:14:17;;;;;;;2.40;2.30;;;22.80;99.90;;;;;;5032088;28;20167;-66
2022/05/05 08:16:43;;;;;;;5.18;3.45;;;23.00;99.90;;;;;;5031724;28;20164;-66
2022/05/05 08:19:09;;;;;;;2.10;2.00;;;23.30;99.90;;;;;;5031898;28;20233;-66
2022/05/05 08:21:34;;;;;;;2.20;2.10;;;23.60;99.90;;;;;;5031002;28;20309;-66
2022/05/05 08:29:28;;;;;;;2.47;2.38;;;24.30;99.90;;;;;;5031679;28;20214;-67
2022/05/05 08:31:54;;;;;;;2.30;2.20;;;24.30;99.90;;;;;;5032030;28;20172;-67
2022/05/05 08:34:19;;;;;;;2.38;2.28;;;24.80;99.90;;;;;;5031678;28;20304;-67
2022/05/05 08:36:45;;;;;;;2.35;2.25;;;24.90;99.90;;;;;;5031292;28;20210;-67
2022/05/05 08:39:11;;;;;;;2.10;2.00;;;25.00;99.90;;;;;;5011176;28;20180;-67
2022/05/05 08:41:39;;;;;;;2.60;2.50;;;25.20;99.90;;;;;;5012048;28;20291;-67
2022/05/05 08:44:04;;;;;;;2.10;2.00;;;25.20;99.90;;;;;;5030573;28;20321;-67
2022/05/05 08:46:33;;;;;;;2.05;1.95;;;25.40;99.90;;;;;;5031353;28;20250;-67
2022/05/05 08:49:03;;;;;;;9.35;3.35;;;25.70;99.90;;;;;;5031066;28;20572;-67
2022/05/05 08:51:51;;;;;;;1.83;1.73;;;26.30;99.90;;;;;;5031452;28;20176;-67
2022/05/05 08:54:19;;;;;;;1.98;1.88;;;27.10;99.90;;;;;;5031557;28;20551;-67
2022/05/05 08:56:48;;;;;;;2.25;2.15;;;26.90;96.30;;;;;;5030800;28;20250;-67
2022/05/05 08:59:15;;;;;;;2.35;2.25;;;26.40;96.90;;;;;;5031602;28;20560;-67
2022/05/05 09:01:41;;;;;;;2.78;2.67;;;26.70;98.00;;;;;;5027953;28;20663;-67
2022/05/05 09:04:08;;;;;;;2.10;2.00;;;27.10;96.70;;;;;;5016697;28;20183;-67
2022/05/05 09:06:41;;;;;;;2.25;2.15;;;27.20;96.10;;;;;;5018492;28;20278;-67
2022/05/05 09:09:22;;;;;;;1.90;1.80;;;27.20;96.90;;;;;;5031366;28;20299;-67
2022/05/05 09:12:09;;;;;;;2.95;2.75;;;27.40;94.90;;;;;;5052472;28;20636;-67
2022/05/05 09:14:55;;;;;;;2.42;2.33;;;27.40;93.70;;;;;;5048844;28;20197;-67
2022/05/05 09:17:26;;;;;;;2.47;2.38;;;27.30;92.70;;;;;;5035720;28;20183;-67
2022/05/05 09:19:54;;;;;;;2.03;1.92;;;27.20;95.20;;;;;;5034295;28;20182;-67
2022/05/05 09:22:21;;;;;;;2.17;2.08;;;27.60;94.00;;;;;;5034990;28;20179;-67
2022/05/05 09:24:52;;;;;;;2.67;2.58;;;27.60;91.90;;;;;;5035805;28;20233;-67
2022/05/05 09:27:27;;;;;;;1.90;1.80;;;27.00;91.20;;;;;;5035623;28;20254;-68
2022/05/05 09:30:03;;;;;;;2.00;1.90;;;26.40;91.50;;;;;;5034335;28;20253;-67
2022/05/05 09:32:31;;;;;;;2.42;2.33;;;26.40;92.30;;;;;;5035723;28;20719;-67
2022/05/05 09:35:03;;;;;;;2.10;2.00;;;26.10;92.60;;;;;;5034120;28;20183;-67
2022/05/05 09:37:30;;;;;;;2.30;2.20;;;26.10;93.10;;;;;;5057683;22;20229;-65
2022/05/05 09:40:00;;;;;;;2.42;2.33;;;26.60;90.60;;;;;;5073753;28;20266;-64
2022/05/05 09:42:41;;;;;;;6.05;3.15;;;26.20;90.90;;;;;;5074573;28;20186;-65
2022/05/05 09:45:17;;;;;;;2.38;2.17;;;26.00;91.00;;;;;;5074411;28;20657;-64
2022/05/05 09:47:46;;;;;;;3.03;2.80;;;25.80;90.80;;;;;;5082955;28;20226;-65
2022/05/05 09:50:12;;;;;;;2.08;1.98;;;25.60;92.80;;;;;;5094702;28;20228;-64
2022/05/05 09:58:26;;;;;;;3.03;2.83;;;25.10;93.50;;;;;;5056918;28;20679;-64
2022/05/05 10:01:00;;;;;;;7.55;3.10;;;25.20;93.70;;;;;;5094498;28;20178;-64
2022/05/05 10:06:21;;;;;;;5.95;2.78;;;25.70;90.60;;;;;;5094466;28;20188;-65
2022/05/05 10:08:51;;;;;;;2.25;2.15;;;25.40;91.40;;;;;;5094342;28;20539;-64
2022/05/05 10:11:19;;;;;;;2.45;2.35;;;25.10;90.40;;;;;;5094497;28;20252;-65
2022/05/05 10:13:45;;;;;;;2.47;2.38;;;25.00;91.80;;;;;;5094417;28;20174;-63
2022/05/05 10:16:14;;;;;;;2.30;2.20;;;24.90;93.40;;;;;;5093922;28;20165;-65
2022/05/05 10:18:41;;;;;;;1.90;1.80;;;25.50;93.50;;;;;;5094128;28;20225;-64
2022/05/05 10:21:08;;;;;;;2.67;2.42;;;25.90;92.20;;;;;;5094006;28;20169;-65
2022/05/05 10:24:03;;;;;;;3.08;2.88;;;26.20;92.80;;;;;;5094147;28;20182;-64
2022/05/05 10:26:29;;;;;;;2.00;1.90;;;25.60;91.70;;;;;;5093829;28;20173;-64
2022/05/05 10:28:55;;;;;;;2.58;2.47;;;25.30;93.00;;;;;;5093676;28;20613;-64
2022/05/05 10:31:37;;;;;;;2.42;2.33;;;25.80;94.00;;;;;;5093992;28;20170;-65
2022/05/05 10:34:17;;;;;;;2.13;2.03;;;26.80;93.60;;;;;;5093881;28;20172;-65
2022/05/05 10:37:03;;;;;;;2.70;2.60;;;27.10;90.90;;;;;;5093613;28;20660;-64
2022/05/05 10:39:43;;;;;;;2.60;2.50;;;27.20;91.50;;;;;;5093896;28;20177;-64
2022/05/05 10:42:22;;;;;;;2.92;2.83;;;26.90;91.50;;;;;;5093835;28;20173;-66
2022/05/05 10:45:15;;;;;;;2.70;2.53;;;26.50;89.70;;;;;;5093324;28;20177;-65
2022/05/05 10:47:54;;;;;;;2.65;2.55;;;26.10;90.40;;;;;;5090277;28;20212;-66
2022/05/05 10:50:53;;;;;;;3.10;2.90;;;26.50;92.10;;;;;;5093552;28;20193;-65
2022/05/05 10:53:36;;;;;;;2.28;2.17;;;27.50;90.10;;;;;;5093487;28;20170;-65
2022/05/05 10:56:04;;;;;;;2.47;2.38;;;28.40;90.70;;;;;;5093177;28;20245;-66
2022/05/05 10:59:08;;;;;;;2.17;2.05;;;28.80;87.70;;;;;;5093721;28;20216;-65
2022/05/05 11:01:46;;;;;;;3.90;3.60;;;28.80;86.10;;;;;;5093365;28;20593;-65
2022/05/05 11:04:20;;;;;;;2.78;2.67;;;27.70;83.90;;;;;;5093247;28;20230;-65
2022/05/05 11:06:50;;;;;;;2.05;1.95;;;27.20;87.30;;;;;;5092965;28;20166;-65
2022/05/05 11:09:37;;;;;;;2.85;2.75;;;26.60;89.70;;;;;;5093266;28;20189;-64
2022/05/05 11:12:20;;;;;;;2.58;2.47;;;26.30;87.20;;;;;;5093306;28;20166;-64
2022/05/05 11:23:46;;;;;;;2.42;2.33;;;27.30;88.30;;;;;;5093232;28;20262;-66
2022/05/05 11:26:20;;;;;;;2.83;2.63;;;26.60;87.80;;;;;;5092513;28;20169;-66
2022/05/05 11:28:49;;;;;;;2.35;2.25;;;26.40;90.40;;;;;;5091338;28;20201;-67
2022/05/05 11:31:27;;;;;;;2.40;2.30;;;25.70;90.20;;;;;;5091613;28;20176;-65
2022/05/05 11:33:58;;;;;;;2.30;2.20;;;24.90;90.20;;;;;;5091238;28;20197;-65
2022/05/05 11:36:33;;;;;;;2.20;2.10;;;24.10;85.90;;;;;;5092412;28;20181;-66
2022/05/05 11:38:59;;;;;;;2.25;2.15;;;24.30;91.60;;;;;;5092613;28;20212;-64
2022/05/05 11:41:25;;;;;;;1.90;1.80;;;25.30;92.70;;;;;;5092978;28;20276;-65
2022/05/05 11:46:36;;;;;;;2.95;2.75;;;27.10;87.00;;;;;;5092593;28;20677;-64
2022/05/05 11:49:02;;;;;;;2.10;2.00;;;27.60;86.90;;;;;;5091809;28;20682;-66
2022/05/05 11:51:30;;;;;;;2.30;2.20;;;27.20;91.00;;;;;;5092300;28;20174;-65
2022/05/05 11:54:01;;;;;;;2.22;2.13;;;27.30;88.80;;;;;;5092312;28;20180;-65
2022/05/05 11:56:27;;;;;;;2.10;2.00;;;27.30;86.40;;;;;;5091671;28;20634;-66
2022/05/05 12:01:59;;;;;;;2.03;1.92;;;26.50;89.60;;;;;;5049651;28;20175;-65
2022/05/05 12:04:25;;;;;;;1.98;1.88;;;26.60;89.40;;;;;;5084695;28;20195;-66
2022/05/05 12:06:51;;;;;;;2.13;2.03;;;26.70;89.20;;;;;;5091643;28;20184;-65
2022/05/05 12:09:20;;;;;;;2.08;1.98;;;26.60;86.90;;;;;;5091840;28;20209;-65
2022/05/05 12:11:46;;;;;;;2.10;2.00;;;26.20;87.60;;;;;;5080770;28;20265;-64
2022/05/05 12:14:13;;;;;;;2.25;2.15;;;25.60;87.60;;;;;;5071427;28;20249;-65
2022/05/05 12:16:39;;;;;;;2.55;2.45;;;24.90;88.00;;;;;;5084207;28;20223;-64
2022/05/05 12:19:15;;;;;;;2.50;2.40;;;24.50;90.10;;;;;;5080175;28;20198;-65
2022/05/05 12:21:52;;;;;;;2.20;2.10;;;24.10;89.80;;;;;;5073690;28;20201;-64
2022/05/05 12:24:20;;;;;;;2.85;2.75;;;23.80;90.10;;;;;;5072909;28;20213;-64
2022/05/05 12:26:46;;;;;;;5.40;2.97;;;23.50;90.50;;;;;;5071089;28;20190;-63
2022/05/05 12:29:15;;;;;;;2.28;2.17;;;23.40;90.50;;;;;;5071155;28;20287;-66
2022/05/05 12:31:57;;;;;;;2.25;2.15;;;23.50;91.70;;;;;;5071538;28;20562;-64
2022/05/05 12:34:27;;;;;;;2.00;1.90;;;24.30;91.50;;;;;;5071466;28;20194;-65
2022/05/05 12:37:14;;;;;;;2.17;2.08;;;25.40;92.30;;;;;;5071017;28;20173;-65
2022/05/05 12:39:50;;;;;;;2.45;2.35;;;26.30;90.60;;;;;;5071425;28;20601;-66
2022/05/05 12:42:16;;;;;;;2.28;2.17;;;26.50;85.20;;;;;;5071409;28;20170;-65
2022/05/05 12:44:44;;;;;;;2.40;2.30;;;27.10;91.70;;;;;;5071293;28;20240;-66
2022/05/05 12:47:09;;;;;;;2.78;2.67;;;27.50;90.00;;;;;;5070989;28;20190;-65
2022/05/05 12:49:36;;;;;;;3.28;3.10;;;27.40;87.40;;;;;;5071201;28;20683;-65
2022/05/05 12:52:04;;;;;;;2.40;2.30;;;27.70;86.20;;;;;;5071145;28;20550;-65
2022/05/05 12:59:58;;;;;;;2.92;2.83;;;26.50;90.30;;;;;;5071362;28;20181;-65
2022/05/05 13:02:24;;;;;;;2.90;2.80;;;26.40;86.10;;;;;;5071146;28;20631;-67
2022/05/05 13:04:51;;;;;;;2.00;1.90;;;25.70;89.60;;;;;;5071010;28;20639;-65
2022/05/05 13:07:16;;;;;;;3.47;3.28;;;25.50;90.50;;;;;;5070993;28;20186;-65
2022/05/05 13:09:42;;;;;;;3.60;3.40;;;25.10;87.80;;;;;;5070987;28;20229;-65
2022/05/05 13:12:08;;;;;;;2.10;2.00;;;25.00;87.30;;;;;;5082073;28;20185;-65
2022/05/05 13:14:35;;;;;;;3.35;3.05;;;25.00;91.70;;;;;;5106905;28;20172;-65
2022/05/05 13:17:01;;;;;;;3.60;3.40;;;25.10;86.80;;;;;;5108675;28;20164;-65
2022/05/05 13:19:29;;;;;;;2.30;2.20;;;24.80;90.00;;;;;;5091188;28;20261;-65
2022/05/05 13:21:55;;;;;;;3.83;3.15;;;25.00;93.20;;;;;;5091061;28;20599;-65
2022/05/05 13:24:20;;;;;;;2.30;2.20;;;25.20;87.50;;;;;;5090402;28;20177;-65
2022/05/05 13:26:46;;;;;;;3.45;2.35;;;25.30;89.80;;;;;;5075991;28;20707;-66
2022/05/05 13:29:13;;;;;;;3.00;2.80;;;25.40;88.30;;;;;;5070983;28;20206;-64
2022/05/05 13:31:39;;;;;;;2.55;2.45;;;25.50;86.80;;;;;;5082605;28;20175;-65
2022/05/05 13:34:05;;;;;;;2.47;2.38;;;25.60;87.30;;;;;;5091014;28;20268;-66
2022/05/05 13:36:31;;;;;;;3.47;2.25;;;25.90;88.20;;;;;;5079533;28;20228;-65
2022/05/05 13:38:57;;;;;;;2.40;2.30;;;26.00;85.80;;;;;;5070757;28;20218;-66
2022/05/05 13:41:22;;;;;;;2.50;2.40;;;26.10;88.30;;;;;;5079248;28;20177;-66